Terminal Aerodrome Forecast
Issued by NWS Birmingham, AL

Home | Current Version | Previous Version | Text Only | Print | Product List | Glossary On
Versions: 1 2 3 4 5 6 7 8 9 10 11
736
FTUS44 KBMX 090523
TAFBHM
TAF
KBHM 090523Z 0906/1006 29010KT P6SM OVC050
     FM091500 29013G22KT P6SM OVC050
     FM100100 29009KT P6SM SKC=

USA.gov is the U.S. government's official web portal to all federal, state and local government web resources and services.